Time;durP1;ratioP1;P1;durP2;ratioP2;P2;SDS_P1;SDS_P2;PMS_P1;PMS_P2;Temp;Humidity;BMP_temperature;BMP_pressure;BME280_temperature;BME280_humidity;BME280_pressure;Samples;Min_cycle;Max_cycle;Signal;HPM_P1;HPM_P2
2023/11/26 00:01:41;;;;;;;0.30;0.30;;;;;;;3.00;100.00;96924.69;5125468;27;20361;-67
2023/11/26 00:04:08;;;;;;;0.28;0.28;;;;;;;3.01;100.00;96915.03;5126677;27;20035;-67
2023/11/26 00:06:34;;;;;;;0.32;0.30;;;;;;;3.00;100.00;96910.81;5128025;27;20027;-66
2023/11/26 00:08:59;;;;;;;0.30;0.30;;;;;;;3.03;100.00;96928.72;5127631;27;20051;-65
2023/11/26 00:11:25;;;;;;;0.30;0.20;;;;;;;2.99;100.00;96915.22;5126738;27;20328;-65
2023/11/26 00:13:51;;;;;;;0.28;0.28;;;;;;;2.98;100.00;96910.97;5124821;27;20332;-65
2023/11/26 00:16:16;;;;;;;0.20;0.20;;;;;;;2.79;100.00;96903.72;5125918;27;20041;-67
2023/11/26 00:18:42;;;;;;;0.40;0.20;;;;;;;2.91;100.00;96904.06;5122282;27;20070;-67
2023/11/26 00:21:07;;;;;;;0.30;0.30;;;;;;;3.09;100.00;96904.47;5132943;27;20046;-66
2023/11/26 00:23:33;;;;;;;0.68;0.40;;;;;;;3.13;100.00;96919.63;5120748;27;20088;-66
2023/11/26 00:25:58;;;;;;;0.70;0.30;;;;;;;3.05;100.00;96917.09;5131216;27;20058;-66
2023/11/26 00:28:23;;;;;;;0.88;0.43;;;;;;;3.06;100.00;96926.56;5118580;28;20043;-66
2023/11/26 00:30:49;;;;;;;0.52;0.30;;;;;;;2.93;100.00;96913.34;5128981;27;20027;-68
2023/11/26 00:33:19;;;;;;;0.32;0.30;;;;;;;3.00;100.00;96923.88;5127760;27;20032;-67
2023/11/26 00:35:45;;;;;;;0.20;0.20;;;;;;;2.93;100.00;96923.78;5124403;27;20039;-66
2023/11/26 00:38:11;;;;;;;0.30;0.30;;;;;;;2.92;100.00;96931.81;5126149;27;20104;-66
2023/11/26 00:40:37;;;;;;;0.28;0.20;;;;;;;2.77;100.00;96940.47;5123380;27;20039;-66
2023/11/26 00:43:02;;;;;;;0.60;0.30;;;;;;;2.78;100.00;96944.72;5125355;27;20036;-68
2023/11/26 00:45:28;;;;;;;0.43;0.30;;;;;;;2.73;100.00;96964.53;5127149;27;20031;-68
2023/11/26 03:49:53;;;;;;;0.32;0.32;;;;;;;3.58;100.00;97315.38;5153438;27;20380;-63
2023/11/26 03:52:19;;;;;;;2.40;1.90;;;;;;;3.42;100.00;97315.53;5133739;28;20031;-63
2023/11/26 03:54:44;;;;;;;2.17;1.23;;;;;;;3.29;100.00;97331.00;5133589;27;20055;-65
2023/11/26 03:57:11;;;;;;;1.42;1.10;;;;;;;3.34;100.00;97332.09;5132813;27;20035;-65
2023/11/26 03:59:36;;;;;;;1.00;0.90;;;;;;;3.20;100.00;97345.94;5129976;28;20237;-62
2023/11/26 04:02:02;;;;;;;2.03;1.45;;;;;;;3.22;100.00;97359.66;5133460;28;20038;-63
2023/11/26 04:04:28;;;;;;;1.40;0.80;;;;;;;3.26;100.00;97362.72;5133581;27;20213;-65
2023/11/26 04:06:54;;;;;;;1.73;0.70;;;;;;;3.27;100.00;97366.97;5133532;27;20047;-65
2023/11/26 04:09:19;;;;;;;1.20;0.80;;;;;;;3.28;100.00;97377.25;5133083;27;20039;-62
2023/11/26 04:11:45;;;;;;;0.88;0.65;;;;;;;3.26;100.00;97379.25;5133430;27;20023;-63
2023/11/26 04:14:10;;;;;;;2.22;0.80;;;;;;;3.24;100.00;97390.84;5133314;27;20038;-64
2023/11/26 04:16:36;;;;;;;1.98;0.50;;;;;;;3.34;100.00;97401.91;5132840;27;20031;-65
2023/11/26 04:19:01;;;;;;;1.00;0.65;;;;;;;3.35;100.00;97396.50;5133288;27;20031;-63
2023/11/26 04:21:27;;;;;;;1.25;1.05;;;;;;;3.34;100.00;97410.56;5133059;27;20043;-64
2023/11/26 04:23:52;;;;;;;5.40;3.60;;;;;;;3.31;100.00;97426.63;5133439;27;20035;-65
2023/11/26 04:26:18;;;;;;;0.85;0.50;;;;;;;3.36;100.00;97426.09;5132893;27;20405;-65
2023/11/26 04:28:43;;;;;;;3.88;0.80;;;;;;;3.36;100.00;97431.31;5133031;27;20043;-63
2023/11/26 04:31:08;;;;;;;1.65;0.80;;;;;;;3.37;100.00;97440.81;5132822;27;20031;-63
2023/11/26 04:33:34;;;;;;;1.08;0.63;;;;;;;3.36;100.00;97453.06;5132814;27;20047;-65
2023/11/26 04:35:59;;;;;;;1.73;1.10;;;;;;;3.40;100.00;97461.38;5132853;27;20031;-65
2023/11/26 04:38:26;;;;;;;4.32;2.33;;;;;;;3.34;100.00;97480.38;5131954;27;20069;-63
2023/11/26 04:40:51;;;;;;;2.70;1.50;;;;;;;3.35;100.00;97492.47;5132668;27;20228;-63
2023/11/26 04:43:17;;;;;;;3.35;2.72;;;;;;;3.42;100.00;97489.00;5132409;27;20039;-63
2023/11/26 04:45:42;;;;;;;2.95;1.90;;;;;;;3.42;100.00;97498.66;5132504;27;20035;-65
2023/11/26 04:48:08;;;;;;;4.00;1.90;;;;;;;3.48;100.00;97508.44;5131967;27;20043;-65
2023/11/26 04:50:34;;;;;;;0.90;0.70;;;;;;;3.37;100.00;97508.81;5119774;27;20036;-63
2023/11/26 04:52:59;;;;;;;0.75;0.57;;;;;;;3.38;100.00;97508.63;5118950;27;20046;-63
2023/11/26 04:55:25;;;;;;;1.58;0.70;;;;;;;3.36;100.00;97505.38;5118724;28;20031;-65
2023/11/26 04:57:50;;;;;;;1.77;1.00;;;;;;;3.36;100.00;97497.53;5118784;28;20214;-65
2023/11/26 05:00:16;;;;;;;3.17;1.80;;;;;;;3.37;100.00;97498.34;5118453;28;20124;-63
2023/11/26 05:02:42;;;;;;;1.20;1.10;;;;;;;3.38;100.00;97503.41;5118671;28;20137;-64
2023/11/26 05:05:09;;;;;;;1.75;0.80;;;;;;;3.39;100.00;97514.69;5109475;28;20237;-65
2023/11/26 05:07:39;;;;;;;1.33;1.10;;;;;;;3.42;100.00;97519.56;5118723;28;20236;-65
2023/11/26 05:10:09;;;;;;;1.40;0.90;;;;;;;3.52;100.00;97522.78;5118589;28;20077;-63
2023/11/26 05:12:35;;;;;;;1.20;0.70;;;;;;;3.48;100.00;97530.16;5118628;28;20325;-63
2023/11/26 05:15:01;;;;;;;0.80;0.50;;;;;;;3.47;100.00;97533.78;5118599;28;20034;-63
2023/11/26 05:17:26;;;;;;;1.23;1.05;;;;;;;3.51;100.00;97548.16;5117951;28;20036;-65
2023/11/26 05:19:52;;;;;;;0.40;0.40;;;;;;;3.59;100.00;97544.66;5118149;28;20023;-65
2023/11/26 05:22:17;;;;;;;1.55;0.60;;;;;;;3.66;100.00;97561.31;5118049;28;20044;-64
2023/11/26 05:24:43;;;;;;;0.93;0.93;;;;;;;3.73;100.00;97572.72;5117919;28;20028;-63
2023/11/26 05:27:09;;;;;;;2.90;1.63;;;;;;;3.76;100.00;97572.38;5118183;27;20038;-65
2023/11/26 05:29:35;;;;;;;4.07;1.75;;;;;;;3.78;100.00;97586.13;5117775;28;20027;-65
2023/11/26 05:32:00;;;;;;;1.85;1.55;;;;;;;3.79;100.00;97598.22;5117930;27;20328;-64
2023/11/26 05:34:26;;;;;;;2.83;1.50;;;;;;;3.76;100.00;97600.38;5118005;28;20068;-63
2023/11/26 05:36:51;;;;;;;3.03;2.00;;;;;;;3.79;100.00;97611.31;5118232;28;20027;-64
2023/11/26 05:39:17;;;;;;;3.28;2.53;;;;;;;3.83;100.00;97617.03;5117691;28;20041;-65
2023/11/26 05:41:42;;;;;;;2.33;1.73;;;;;;;3.82;100.00;97616.19;5117561;28;20613;-65
2023/11/26 05:44:09;;;;;;;1.80;1.50;;;;;;;3.81;100.00;97634.69;5117961;28;20042;-63
2023/11/26 05:46:34;;;;;;;2.05;1.60;;;;;;;3.87;100.00;97638.44;5117511;28;20047;-64
2023/11/26 05:49:00;;;;;;;1.95;1.77;;;;;;;3.78;100.00;97637.66;5117439;27;20073;-65
2023/11/26 05:51:27;;;;;;;1.65;1.55;;;;;;;3.70;100.00;97646.34;5117609;28;20084;-65
2023/11/26 05:53:53;;;;;;;4.80;2.65;;;;;;;3.73;100.00;97651.25;5118130;28;20328;-64
2023/11/26 05:56:18;;;;;;;3.13;1.85;;;;;;;3.77;100.00;97654.34;5117614;28;20061;-63
2023/11/26 05:58:43;;;;;;;3.70;2.33;;;;;;;3.75;100.00;97665.00;5117744;28;20027;-65
2023/11/26 06:01:09;;;;;;;3.35;1.80;;;;;;;3.77;100.00;97678.72;5116751;28;20027;-65
2023/11/26 06:03:36;;;;;;;5.20;2.80;;;;;;;3.77;100.00;97681.34;5117138;28;20036;-63
2023/11/26 06:06:02;;;;;;;6.90;3.45;;;;;;;3.85;100.00;97686.53;5117448;28;20080;-63
2023/11/26 06:08:27;;;;;;;4.13;2.40;;;;;;;3.79;100.00;97704.72;5117362;28;20259;-64
2023/11/26 06:10:52;;;;;;;3.03;2.10;;;;;;;3.80;100.00;97714.22;5117241;28;20045;-65
2023/11/26 06:13:18;;;;;;;2.78;2.20;;;;;;;3.90;100.00;97725.31;5117364;28;20214;-65
2023/11/26 06:15:43;;;;;;;3.92;2.60;;;;;;;3.82;100.00;97736.63;5117495;28;20031;-64
2023/11/26 06:18:09;;;;;;;1.40;1.30;;;;;;;3.88;100.00;97736.94;5117251;28;20228;-64
2023/11/26 06:20:34;;;;;;;1.65;1.50;;;;;;;3.84;100.00;97737.28;5116663;28;20036;-64
2023/11/26 06:23:00;;;;;;;5.75;2.75;;;;;;;3.75;100.00;97740.91;5115418;28;20035;-66
2023/11/26 06:25:25;;;;;;;2.20;1.80;;;;;;;3.82;100.00;97748.91;5116794;28;20363;-66
2023/11/26 06:27:51;;;;;;;2.10;1.73;;;;;;;3.88;100.00;97757.88;5116772;28;20041;-64
2023/11/26 06:30:16;;;;;;;2.00;1.83;;;;;;;3.84;100.00;97767.88;5116856;28;20033;-64
2023/11/26 06:32:42;;;;;;;13.38;12.40;;;;;;;3.56;100.00;97784.94;5117003;28;20043;-64
2023/11/26 06:35:08;;;;;;;1.30;1.20;;;;;;;3.70;100.00;97784.25;5116868;28;20055;-66
2023/11/26 06:37:34;;;;;;;3.05;2.75;;;;;;;3.74;100.00;97793.41;5116594;28;20276;-66
2023/11/26 06:39:59;;;;;;;5.00;4.38;;;;;;;3.86;100.00;97802.56;5116562;28;20038;-63
2023/11/26 06:42:25;;;;;;;3.22;2.85;;;;;;;3.97;100.00;97801.38;5116708;28;20035;-64
2023/11/26 06:44:50;;;;;;;1.90;1.60;;;;;;;4.02;100.00;97799.91;5117022;28;20364;-64
2023/11/26 06:47:15;;;;;;;2.55;2.08;;;;;;;4.04;100.00;97810.19;5116679;28;20039;-67
2023/11/26 06:49:41;;;;;;;2.40;2.10;;;;;;;4.09;100.00;97813.94;5116729;28;20043;-66
2023/11/26 06:52:06;;;;;;;2.30;2.10;;;;;;;4.10;100.00;97820.81;5116648;28;20321;-64
2023/11/26 06:54:33;;;;;;;3.22;2.05;;;;;;;4.18;100.00;97816.59;5116327;28;20337;-64
2023/11/26 06:56:58;;;;;;;2.58;1.63;;;;;;;4.13;100.00;97823.09;5116526;28;20244;-64
2023/11/26 06:59:24;;;;;;;2.60;1.98;;;;;;;4.03;100.00;97835.56;5116345;27;20058;-67
2023/11/26 07:01:49;;;;;;;4.28;3.22;;;;;;;4.01;100.00;97848.03;5116623;28;20031;-65
2023/11/26 07:04:15;;;;;;;3.88;2.55;;;;;;;3.95;100.00;97845.25;5116230;28;20053;-63
2023/11/26 07:06:42;;;;;;;4.82;2.55;;;;;;;4.00;100.00;97841.16;5116012;28;20035;-64
2023/11/26 07:09:09;;;;;;;4.50;2.90;;;;;;;3.88;100.00;97846.91;5115719;28;20044;-64
2023/11/26 07:11:35;;;;;;;3.97;2.70;;;;;;;3.92;100.00;97850.81;5116000;28;20317;-63
2023/11/26 07:14:02;;;;;;;3.90;2.65;;;;;;;3.91;100.00;97860.47;5116371;28;20043;-66
2023/11/26 07:16:27;;;;;;;2.40;2.20;;;;;;;3.91;100.00;97862.28;5116983;28;20031;-65
2023/11/26 07:18:53;;;;;;;4.05;2.95;;;;;;;3.92;100.00;97875.19;5117016;28;20112;-64
2023/11/26 07:21:18;;;;;;;4.13;2.45;;;;;;;3.93;100.00;97879.47;5116481;28;20047;-64
2023/11/26 07:23:46;;;;;;;2.78;2.47;;;;;;;3.78;100.00;97887.16;5117266;28;20032;-64
2023/11/26 07:26:15;;;;;;;4.55;3.22;;;;;;;3.76;100.00;97901.41;5116722;28;20044;-66
2023/11/26 07:28:40;;;;;;;4.45;3.05;;;;;;;3.75;100.00;97891.91;5116661;28;20039;-66
2023/11/26 07:31:18;;;;;;;3.10;2.75;;;;;;;3.58;100.00;97906.78;5116838;28;20027;-64
2023/11/26 07:33:43;;;;;;;3.47;3.00;;;;;;;3.46;100.00;97914.13;5116579;28;20035;-64
2023/11/26 07:36:19;;;;;;;4.05;2.88;;;;;;;3.36;100.00;97923.94;5116524;28;20084;-64
2023/11/26 07:38:44;;;;;;;3.85;2.97;;;;;;;3.28;100.00;97938.78;5115833;28;20321;-66
2023/11/26 07:41:10;;;;;;;3.70;3.13;;;;;;;3.36;100.00;97944.88;5116168;28;20068;-65
2023/11/26 07:43:40;;;;;;;3.22;2.92;;;;;;;3.44;100.00;97944.88;5117578;28;20497;-64
2023/11/26 07:46:07;;;;;;;4.93;2.97;;;;;;;3.52;100.00;97960.59;5116513;28;20031;-64
2023/11/26 07:48:33;;;;;;;4.40;2.92;;;;;;;3.47;100.00;97973.34;5115559;28;20442;-64
2023/11/26 07:50:59;;;;;;;4.03;3.13;;;;;;;3.51;100.00;97979.06;5114801;28;20042;-66
2023/11/26 07:53:25;;;;;;;4.10;2.70;;;;;;;3.45;100.00;97987.56;5116844;28;20228;-66
2023/11/26 07:55:56;;;;;;;4.25;2.90;;;;;;;3.48;100.00;97993.28;5116505;28;20046;-63
2023/11/26 07:58:25;;;;;;;4.72;3.42;;;;;;;3.44;100.00;97991.97;5117178;28;20079;-65
2023/11/26 08:00:51;;;;;;;4.63;3.17;;;;;;;3.56;100.00;98008.19;5116904;28;20032;-66
2023/11/26 08:03:17;;;;;;;3.15;2.53;;;;;;;3.56;100.00;98018.66;5116279;28;20036;-67
2023/11/26 08:05:43;;;;;;;5.63;3.50;;;;;;;3.50;100.00;98016.69;5116192;28;20264;-64
2023/11/26 08:08:09;;;;;;;5.88;3.75;;;;;;;3.46;100.00;98020.59;5116107;28;20248;-64
2023/11/26 08:10:34;;;;;;;4.25;3.42;;;;;;;3.51;100.00;98039.25;5114999;28;20035;-65
2023/11/26 08:13:00;;;;;;;5.20;3.15;;;;;;;3.42;100.00;98051.50;5115585;28;20224;-65
2023/11/26 08:15:28;;;;;;;4.95;2.85;;;;;;;3.48;100.00;98058.72;5116170;28;20024;-65
2023/11/26 08:17:56;;;;;;;4.30;2.55;;;;;;;3.45;100.00;98060.81;5116247;28;20240;-63
2023/11/26 08:20:23;;;;;;;5.00;3.30;;;;;;;3.49;100.00;98076.06;5114429;28;20065;-63
2023/11/26 08:22:48;;;;;;;3.60;2.92;;;;;;;3.51;100.00;98091.59;5115829;28;20290;-65
2023/11/26 08:25:19;;;;;;;3.38;2.63;;;;;;;3.49;100.00;98089.13;5117970;28;20066;-65
2023/11/26 08:27:46;;;;;;;3.45;2.85;;;;;;;3.51;100.00;98095.03;5116855;28;20039;-63
2023/11/26 08:33:00;;;;;;;5.45;3.30;;;;;;;3.60;100.00;98113.38;5110617;28;20035;-62
2023/11/26 08:35:29;;;;;;;5.00;2.80;;;;;;;3.57;100.00;98104.03;5119010;27;20054;-65
2023/11/26 08:37:55;;;;;;;4.82;2.97;;;;;;;3.57;100.00;98111.91;5114154;28;20031;-65
2023/11/26 08:40:22;;;;;;;4.38;2.80;;;;;;;3.55;100.00;98118.25;5119070;28;20028;-64
2023/11/26 08:42:48;;;;;;;5.22;2.92;;;;;;;3.60;100.00;98127.28;5118408;27;20039;-64
2023/11/26 08:45:13;;;;;;;4.07;2.67;;;;;;;3.58;100.00;98131.03;5118924;28;20065;-65
2023/11/26 08:47:43;;;;;;;3.65;2.60;;;;;;;3.58;100.00;98125.81;5118262;28;20040;-65
2023/11/26 08:50:09;;;;;;;3.17;2.50;;;;;;;3.61;100.00;98142.00;5118765;28;20047;-64
2023/11/26 08:52:35;;;;;;;6.15;3.53;;;;;;;3.65;100.00;98139.91;5118689;28;20031;-61
2023/11/26 08:55:04;;;;;;;4.20;3.15;;;;;;;3.69;100.00;98154.31;5118407;27;20421;-62
2023/11/26 08:57:32;;;;;;;3.50;2.28;;;;;;;3.58;99.58;98159.81;5117982;28;20043;-63
2023/11/26 08:59:58;;;;;;;3.38;2.50;;;;;;;3.56;99.98;98167.00;5118305;28;20051;-64
2023/11/26 09:02:26;;;;;;;4.60;2.40;;;;;;;3.55;99.92;98179.28;5117498;27;20050;-63
2023/11/26 09:04:52;;;;;;;6.90;2.85;;;;;;;3.63;100.00;98181.94;5117213;28;20039;-63
2023/11/26 09:07:18;;;;;;;3.72;2.50;;;;;;;3.56;99.67;98190.56;5116692;28;20036;-64
2023/11/26 09:09:44;;;;;;;3.13;2.40;;;;;;;3.60;99.83;98204.97;5117570;28;20034;-62
2023/11/26 09:12:09;;;;;;;3.88;2.97;;;;;;;3.66;100.00;98199.13;5117001;28;20321;-64
2023/11/26 09:14:35;;;;;;;3.95;2.47;;;;;;;3.65;98.16;98221.03;5117070;28;20036;-63
2023/11/26 09:17:01;;;;;;;5.40;3.35;;;;;;;3.63;99.06;98209.91;5117556;28;20035;-63
2023/11/26 09:19:27;;;;;;;3.58;2.50;;;;;;;3.66;98.51;98230.53;5117017;28;20035;-63
2023/11/26 09:21:53;;;;;;;4.43;2.70;;;;;;;3.61;98.12;98225.75;5117258;28;20361;-63
2023/11/26 09:24:19;;;;;;;3.22;2.28;;;;;;;3.60;98.85;98236.38;5117061;28;20426;-64
2023/11/26 09:26:45;;;;;;;5.63;2.92;;;;;;;3.60;98.95;98239.81;5117454;28;20049;-64
2023/11/26 09:29:11;;;;;;;3.10;2.70;;;;;;;3.59;98.74;98253.06;5117766;28;20508;-64
2023/11/26 09:31:43;;;;;;;7.13;3.47;;;;;;;3.52;98.57;98261.53;5117602;27;20321;-64
2023/11/26 09:34:11;;;;;;;3.58;2.38;;;;;;;3.49;98.52;98269.69;5117693;28;20397;-64
2023/11/26 09:36:43;;;;;;;4.88;3.13;;;;;;;3.53;99.81;98276.25;5117020;28;20035;-65
2023/11/26 09:39:11;;;;;;;4.60;3.35;;;;;;;3.59;99.08;98279.25;5117487;28;20077;-65
2023/11/26 09:41:37;;;;;;;4.65;3.17;;;;;;;3.55;97.44;98273.50;5117758;28;20036;-65
2023/11/26 09:44:05;;;;;;;3.85;2.75;;;;;;;3.60;98.08;98288.72;5117783;28;20031;-64
2023/11/26 09:46:32;;;;;;;4.68;3.38;;;;;;;3.53;98.08;98288.53;5117453;28;20062;-63
2023/11/26 09:48:58;;;;;;;4.30;3.10;;;;;;;3.54;97.80;98292.78;5116750;28;20040;-63
2023/11/26 09:51:24;;;;;;;4.78;3.58;;;;;;;3.58;97.59;98293.31;5116946;28;20034;-64
2023/11/26 09:53:51;;;;;;;5.55;3.28;;;;;;;3.46;97.27;98290.94;5117398;28;20044;-65
2023/11/26 09:56:17;;;;;;;3.80;3.22;;;;;;;3.55;97.41;98304.91;5117096;28;20059;-63
2023/11/26 09:58:43;;;;;;;3.78;2.60;;;;;;;3.46;96.97;98314.47;5117364;28;20050;-64
2023/11/26 10:01:09;;;;;;;3.35;2.70;;;;;;;3.43;97.34;98330.50;5117325;28;20047;-64
2023/11/26 10:03:54;;;;;;;6.35;2.88;;;;;;;3.50;97.13;98336.75;5117180;28;20036;-65
2023/11/26 10:06:19;;;;;;;;;;;;;;;3.52;97.17;98339.22;5118027;28;20401;-66
2023/11/26 10:08:44;;;;;;;4.15;2.70;;;;;;;3.57;96.74;98349.25;5116878;28;19958;-63
2023/11/26 10:11:10;;;;;;;3.22;2.80;;;;;;;3.40;97.12;98358.75;5115396;28;20031;-63
2023/11/26 10:13:38;;;;;;;2.97;2.25;;;;;;;3.42;96.26;98362.84;5116798;28;20039;-64
2023/11/26 10:16:04;;;;;;;3.22;2.45;;;;;;;3.45;96.08;98356.50;5117798;28;20055;-64
2023/11/26 10:18:42;;;;;;;3.03;2.70;;;;;;;3.42;95.71;98367.28;5117273;28;20206;-65
2023/11/26 10:21:08;;;;;;;4.80;2.95;;;;;;;3.51;95.56;98369.81;5115665;28;20034;-64
2023/11/26 10:23:38;;;;;;;3.42;2.83;;;;;;;3.56;95.55;98366.75;5116375;28;20040;-63
2023/11/26 10:26:17;;;;;;;3.33;2.40;;;;;;;3.59;94.15;98376.06;5116628;28;20024;-63
2023/11/26 10:28:57;;;;;;;2.38;1.98;;;;;;;3.55;93.54;98380.78;5116215;28;20947;-65
2023/11/26 10:31:22;;;;;;;4.15;3.20;;;;;;;3.62;93.90;98383.63;5116838;28;20032;-65
2023/11/26 10:33:48;;;;;;;3.95;2.97;;;;;;;3.66;94.21;98406.72;5116359;28;20265;-63
2023/11/26 10:36:29;;;;;;;3.15;2.58;;;;;;;3.48;93.06;98398.91;5116371;28;20041;-62
2023/11/26 10:38:54;;;;;;;4.13;2.50;;;;;;;3.52;92.70;98402.84;5116117;28;20039;-62
2023/11/26 10:41:21;;;;;;;3.55;2.35;;;;;;;3.59;92.98;98412.72;5116240;28;20039;-63
2023/11/26 10:43:48;;;;;;;3.08;2.78;;;;;;;3.45;92.44;98406.22;5115650;28;20060;-63
2023/11/26 10:46:13;;;;;;;3.50;2.30;;;;;;;3.51;92.47;98421.31;5114263;28;20043;-63
2023/11/26 10:48:46;;;;;;;3.88;2.38;;;;;;;3.13;91.03;98420.63;5114489;28;20295;-64
2023/11/26 10:51:19;;;;;;;3.00;2.45;;;;;;;3.44;92.85;98434.19;5115941;28;20044;-63
2023/11/26 10:54:14;;;;;;;4.43;3.15;;;;;;;3.52;93.26;98447.34;5115427;28;20034;-63
2023/11/26 10:56:43;;;;;;;4.03;2.70;;;;;;;3.43;92.78;98468.34;5115172;28;20069;-63
2023/11/26 10:59:14;;;;;;;4.47;3.17;;;;;;;3.48;92.19;98469.56;5115398;28;20035;-63
2023/11/26 11:01:41;;;;;;;3.25;2.90;;;;;;;3.63;92.78;98476.88;5113282;28;20027;-63
2023/11/26 11:04:14;;;;;;;3.30;3.00;;;;;;;3.66;91.39;98487.88;5115183;28;20027;-64
2023/11/26 11:06:41;;;;;;;3.30;3.00;;;;;;;3.73;90.92;98480.25;5114543;28;20138;-64
2023/11/26 11:09:13;;;;;;;3.40;2.40;;;;;;;3.74;90.16;98497.63;5114995;28;20043;-64
2023/11/26 11:12:03;;;;;;;3.55;2.65;;;;;;;3.72;90.78;98504.78;5114701;28;20027;-62
2023/11/26 11:14:30;;;;;;;2.67;1.90;;;;;;;3.78;88.96;98506.81;5113685;28;20348;-63
2023/11/26 11:16:56;;;;;;;2.72;2.22;;;;;;;3.75;89.89;98512.34;5114850;28;20336;-62
2023/11/26 11:19:50;;;;;;;2.30;2.10;;;;;;;3.81;89.77;98512.56;5114696;28;20033;-63
2023/11/26 11:22:16;;;;;;;4.22;2.50;;;;;;;3.83;89.20;98523.72;5114625;28;20218;-61
2023/11/26 11:24:43;;;;;;;4.90;2.78;;;;;;;3.84;90.36;98527.97;5115085;28;20039;-62
2023/11/26 11:27:08;;;;;;;4.10;2.47;;;;;;;3.88;89.44;98536.38;5114827;28;20038;-61
2023/11/26 11:29:34;;;;;;;5.43;3.33;;;;;;;3.85;89.18;98542.72;5114557;28;20036;-62
2023/11/26 11:32:03;;;;;;;4.35;2.55;;;;;;;3.90;90.79;98547.50;5114565;28;20031;-62
2023/11/26 11:34:29;;;;;;;6.90;2.70;;;;;;;3.89;90.70;98551.09;5115008;28;20069;-62
2023/11/26 11:36:59;;;;;;;3.80;2.20;;;;;;;3.85;89.34;98563.69;5114653;28;20652;-64
2023/11/26 11:39:41;;;;;;;3.35;2.28;;;;;;;3.87;89.34;98563.53;5114437;28;20068;-64
2023/11/26 11:42:07;;;;;;;3.17;2.00;;;;;;;3.97;88.22;98576.56;5114966;28;20032;-62
2023/11/26 11:44:34;;;;;;;4.93;2.90;;;;;;;3.95;87.91;98568.84;5114874;28;20036;-62
2023/11/26 11:47:00;;;;;;;2.35;2.10;;;;;;;3.93;87.76;98590.91;5114628;28;20043;-64
2023/11/26 11:49:46;;;;;;;3.90;2.17;;;;;;;4.13;89.11;98587.19;5096560;28;20036;-64
2023/11/26 11:52:16;;;;;;;3.50;2.90;;;;;;;4.20;89.24;98593.50;5094140;28;20070;-62
2023/11/26 11:55:09;;;;;;;2.53;1.88;;;;;;;3.98;85.71;98584.25;5094762;28;20040;-63
2023/11/26 11:57:48;;;;;;;3.75;2.30;;;;;;;3.88;87.36;98586.13;5095352;28;20094;-63
2023/11/26 12:00:17;;;;;;;3.17;2.38;;;;;;;3.85;87.07;98587.25;5097370;28;20036;-64
2023/11/26 12:02:44;;;;;;;2.95;1.92;;;;;;;3.89;85.69;98597.41;5101342;28;20078;-65
2023/11/26 12:05:28;;;;;;;4.32;2.97;;;;;;;3.86;86.00;98601.16;5100676;28;20321;-63
2023/11/26 12:07:58;;;;;;;4.68;2.28;;;;;;;3.92;87.17;98597.13;5100185;28;20051;-62
2023/11/26 12:10:25;;;;;;;2.60;2.40;;;;;;;3.90;85.66;98607.75;5101798;28;20338;-64
2023/11/26 12:13:06;;;;;;;4.00;3.03;;;;;;;3.84;86.73;98600.47;5101253;28;20244;-64
2023/11/26 12:15:32;;;;;;;4.10;3.15;;;;;;;3.87;87.12;98602.81;5101468;28;20040;-65
2023/11/26 12:17:58;;;;;;;4.43;3.22;;;;;;;3.75;86.25;98598.75;5101111;28;20369;-64
2023/11/26 12:20:26;;;;;;;2.70;1.90;;;;;;;3.76;86.13;98592.53;5101253;28;20035;-63
2023/11/26 12:22:51;;;;;;;2.47;2.28;;;;;;;3.58;83.05;98589.06;5100791;28;20032;-64
2023/11/26 12:25:21;;;;;;;3.40;3.10;;;;;;;3.61;84.44;98607.09;5099144;28;20036;-62
2023/11/26 12:28:01;;;;;;;2.58;2.38;;;;;;;3.87;87.16;98615.06;5100572;28;20351;-61
2023/11/26 12:30:27;;;;;;;4.55;2.78;;;;;;;3.87;87.16;98612.47;5100108;28;20024;-63
2023/11/26 12:32:52;;;;;;;2.83;2.40;;;;;;;3.65;84.47;98603.22;5099326;28;20267;-62
2023/11/26 12:35:20;;;;;;;2.88;2.42;;;;;;;3.62;83.89;98620.03;5100181;28;20405;-65
2023/11/26 12:37:46;;;;;;;3.42;3.00;;;;;;;3.44;85.62;98625.22;5099122;28;20032;-62
2023/11/26 12:40:12;;;;;;;3.28;2.97;;;;;;;3.57;85.51;98624.06;5099831;28;20095;-62
2023/11/26 12:42:41;;;;;;;3.15;2.53;;;;;;;3.54;85.80;98633.03;5098490;28;20111;-62
2023/11/26 12:45:10;;;;;;;4.38;2.85;;;;;;;3.38;86.79;98631.03;5098436;28;20303;-62
2023/11/26 12:47:48;;;;;;;2.92;1.60;;;;;;;3.31;85.57;98634.34;5099160;28;20301;-62
2023/11/26 12:50:14;;;;;;;2.85;2.20;;;;;;;3.49;85.76;98627.41;5118350;27;20040;-63
2023/11/26 12:52:39;;;;;;;2.45;2.25;;;;;;;3.50;87.15;98632.47;5118532;28;20038;-65
2023/11/26 12:55:07;;;;;;;3.78;2.72;;;;;;;3.63;86.63;98636.56;5119075;28;20039;-62
2023/11/26 12:57:38;;;;;;;2.40;2.22;;;;;;;3.31;83.09;98639.59;5118534;28;20036;-64
2023/11/26 13:00:06;;;;;;;4.60;2.65;;;;;;;3.38;85.67;98649.34;5118645;28;20331;-62
2023/11/26 13:02:33;;;;;;;3.53;2.20;;;;;;;3.26;85.64;98658.31;5117749;28;20242;-63
2023/11/26 13:05:03;;;;;;;2.53;1.80;;;;;;;3.27;84.22;98627.75;5118465;28;20332;-66
2023/11/26 13:07:41;;;;;;;3.13;2.30;;;;;;;3.31;82.55;98663.13;5117390;28;20031;-65
2023/11/26 13:10:08;;;;;;;3.40;1.95;;;;;;;3.32;84.03;98673.47;5117986;28;20450;-63
2023/11/26 13:12:43;;;;;;;3.05;2.30;;;;;;;3.43;85.72;98683.75;5118571;28;20106;-63
2023/11/26 13:15:13;;;;;;;3.00;1.88;;;;;;;3.45;84.81;98696.69;5118075;28;20035;-63
2023/11/26 13:17:41;;;;;;;2.00;1.70;;;;;;;3.35;83.43;98694.09;5118841;28;20031;-63
2023/11/26 13:20:13;;;;;;;2.00;1.88;;;;;;;3.44;84.09;98692.44;5119214;28;20084;-64
2023/11/26 13:22:39;;;;;;;2.88;2.05;;;;;;;3.45;84.75;98683.59;5118949;28;20215;-65
2023/11/26 13:25:05;;;;;;;2.97;2.22;;;;;;;3.50;84.54;98702.31;5119187;28;20090;-63
2023/11/26 13:27:31;;;;;;;3.38;2.30;;;;;;;3.42;83.11;98697.81;5117079;28;20063;-64
2023/11/26 13:29:56;;;;;;;7.30;3.03;;;;;;;3.41;83.27;98706.63;5118737;28;20038;-63
2023/11/26 13:32:22;;;;;;;2.50;1.77;;;;;;;3.24;83.74;98701.28;5118788;28;20032;-64
2023/11/26 13:34:47;;;;;;;4.47;1.77;;;;;;;3.22;83.43;98701.44;5119940;28;20042;-65
2023/11/26 13:37:16;;;;;;;2.78;2.30;;;;;;;3.36;83.01;98693.13;5117996;28;20214;-64
2023/11/26 13:39:43;;;;;;;2.30;2.10;;;;;;;3.27;83.50;98703.63;5117766;28;20031;-63
2023/11/26 13:42:09;;;;;;;2.05;1.60;;;;;;;3.18;83.09;98703.50;5118028;28;20031;-63
2023/11/26 13:44:35;;;;;;;2.08;1.73;;;;;;;3.06;82.67;98707.22;5117854;28;20030;-63
2023/11/26 13:47:01;;;;;;;3.17;2.00;;;;;;;3.20;83.42;98719.88;5117730;28;20047;-63
2023/11/26 13:49:27;;;;;;;2.17;1.75;;;;;;;3.15;82.56;98727.34;5117833;28;20052;-64
2023/11/26 13:51:53;;;;;;;1.67;1.52;;;;;;;3.20;83.18;98740.00;5118682;28;20032;-64
2023/11/26 13:54:18;;;;;;;2.67;1.80;;;;;;;3.24;83.92;98743.97;5118230;28;20226;-64
2023/11/26 13:56:43;;;;;;;2.78;2.05;;;;;;;3.16;83.53;98759.53;5118722;28;20040;-64
2023/11/26 13:59:09;;;;;;;1.98;1.80;;;;;;;3.04;84.44;98760.63;5118227;27;20088;-63
2023/11/26 14:01:36;;;;;;;2.63;2.05;;;;;;;3.03;83.97;98765.03;5116975;28;20420;-63
2023/11/26 14:04:01;;;;;;;3.75;2.33;;;;;;;3.11;82.67;98780.03;5118376;28;20040;-62
2023/11/26 14:06:27;;;;;;;1.50;1.40;;;;;;;2.75;82.03;98760.63;5113452;28;20683;-65
2023/11/26 14:08:52;;;;;;;2.05;1.85;;;;;;;3.00;84.22;98783.59;5119412;28;20318;-63
2023/11/26 14:11:20;;;;;;;2.28;1.63;;;;;;;2.94;84.26;98786.78;5120071;28;20036;-63
2023/11/26 14:13:45;;;;;;;3.72;1.80;;;;;;;3.01;84.61;98787.06;5119223;28;20329;-64
2023/11/26 14:16:15;;;;;;;2.60;1.90;;;;;;;2.89;84.08;98795.03;5119713;28;20080;-64
2023/11/26 14:18:40;;;;;;;1.98;1.70;;;;;;;2.73;84.08;98794.75;5119700;28;20032;-65
2023/11/26 14:21:06;;;;;;;1.90;1.70;;;;;;;2.78;85.01;98808.22;5118990;28;20035;-66
2023/11/26 14:23:31;;;;;;;4.45;1.73;;;;;;;2.66;84.06;98816.31;5118773;28;20082;-63
2023/11/26 14:25:57;;;;;;;2.47;1.60;;;;;;;2.76;83.94;98825.84;5119658;27;20027;-63
2023/11/26 14:28:22;;;;;;;2.60;2.22;;;;;;;2.71;84.53;98835.03;5118649;28;20043;-64
2023/11/26 14:30:48;;;;;;;3.47;2.13;;;;;;;2.42;85.62;98794.00;5119106;28;20034;-63
2023/11/26 14:33:13;;;;;;;3.30;1.80;;;;;;;2.78;84.95;98844.00;5118459;28;20321;-64
2023/11/26 14:35:43;;;;;;;3.45;2.08;;;;;;;2.77;85.24;98850.19;5118115;28;20451;-65
2023/11/26 14:38:09;;;;;;;3.47;2.45;;;;;;;2.76;86.05;98857.22;5118364;28;20239;-64
2023/11/26 14:40:36;;;;;;;2.80;1.95;;;;;;;2.79;85.10;98850.88;5119719;28;20041;-63
2023/11/26 14:43:02;;;;;;;2.20;2.00;;;;;;;2.81;84.67;98868.09;5118648;28;20032;-66